To NAV CANADA Home Page Login to a new session Search on AWWS site Feedback and Comments Disclaimer Vers la page française équivalente Tips FAQ What's new on the site To the Forecasts and Observations / NOTAM section To "File a Flight Plan" website Publications and other links Update of the User's profile FIC Telephone Numbers My Weather Data Folder Route Weather Data Regional Weather Data Local Weather Data To the Forecasts and Observations / NOTAM section
Request Generated 08/22/2017 at 03:28:38 UTC . Weather information available at that time is displayed.

METAR/TAF

COMOX/BC    

METAR CYQQ 220300Z 36002KT 20SM FEW150 FEW230 26/13 A3001 RMK AC1CI1 SLP164=
METAR CYQQ 220200Z 34005KT 20SM FEW060 FEW150 FEW230 27/13 A3003 RMK SC1AC1CI1 SLP168=
METAR CYQQ 220100Z 34006KT 20SM FEW060 FEW150 FEW230 27/13 A3005 RMK SC1AC1CI1 SLP175=

TAF CYQQ 212339Z 2200/2224 02005KT P6SM SCT060 SCT150 SCT250
BECMG 2201/2203 30005KT
FM221500 35005KT P6SM SCT080 TEMPO 2215/2224 BKN070
BECMG 2219/2221 04006KT
RMK NXT FCST BY 220600Z=
Your time UTC time
Weather data provided by Environment Canada and NAV CANADA